Time;durP1;ratioP1;P1;durP2;ratioP2;P2;SDS_P1;SDS_P2;PMS_P1;PMS_P2;Temp;Humidity;BMP_temperature;BMP_pressure;BME280_temperature;BME280_humidity;BME280_pressure;Samples;Min_cycle;Max_cycle;Signal;HPM_P1;HPM_P2
2021/01/09 00:00:19;;;;;;;4.93;1.77;;;24.70;47.00;;;;;;5095570;28;19974;-47
2021/01/09 00:02:46;;;;;;;6.63;1.80;;;24.70;46.80;;;;;;5094910;28;20460;-47
2021/01/09 00:05:14;;;;;;;5.13;2.03;;;24.70;46.70;;;;;;5094902;28;20479;-47
2021/01/09 00:07:40;;;;;;;6.28;2.47;;;24.70;46.60;;;;;;5095155;28;20103;-47
2021/01/09 00:10:09;;;;;;;6.47;2.28;;;24.70;46.60;;;;;;5095340;28;20447;-47
2021/01/09 00:12:37;;;;;;;5.32;2.45;;;24.70;46.60;;;;;;5094580;28;20034;-47
2021/01/09 00:15:05;;;;;;;8.02;2.42;;;24.70;46.60;;;;;;5095040;28;20038;-47
2021/01/09 00:17:32;;;;;;;4.78;2.15;;;24.70;46.50;;;;;;5094873;28;20034;-47
2021/01/09 00:19:59;;;;;;;6.72;2.47;;;24.70;46.60;;;;;;5095440;28;20061;-47
2021/01/09 00:22:25;;;;;;;5.03;2.22;;;24.80;46.70;;;;;;5094712;28;20093;-48
2021/01/09 00:24:52;;;;;;;8.23;2.60;;;24.80;46.60;;;;;;5095097;28;20050;-47
2021/01/09 00:27:19;;;;;;;5.72;2.20;;;24.80;46.50;;;;;;5094936;28;20028;-47
2021/01/09 00:29:45;;;;;;;6.85;2.30;;;24.80;46.50;;;;;;5094513;28;20031;-47
2021/01/09 00:32:13;;;;;;;6.45;2.33;;;24.80;46.50;;;;;;5094213;28;20447;-48
2021/01/09 00:34:39;;;;;;;5.25;2.00;;;24.90;46.40;;;;;;5094606;28;20032;-47
2021/01/09 00:37:06;;;;;;;6.93;2.20;;;24.90;46.40;;;;;;5094620;28;20023;-47
2021/01/09 00:39:32;;;;;;;5.13;1.92;;;25.00;46.30;;;;;;5094458;28;20020;-47
2021/01/09 00:42:00;;;;;;;8.07;2.53;;;25.10;46.30;;;;;;5094536;28;20417;-47
2021/01/09 00:44:28;;;;;;;6.00;2.20;;;25.10;46.20;;;;;;5094520;28;20027;-47
2021/01/09 00:46:58;;;;;;;5.78;2.30;;;25.20;46.10;;;;;;5094085;28;20024;-47
2021/01/09 00:49:25;;;;;;;6.80;2.40;;;25.20;45.90;;;;;;5094450;28;20047;-48
2021/01/09 00:51:52;;;;;;;4.63;2.22;;;25.30;45.90;;;;;;5094380;28;20031;-48
2021/01/09 00:54:18;;;;;;;4.90;2.00;;;25.30;45.90;;;;;;5094075;28;20028;-47
2021/01/09 00:56:45;;;;;;;5.03;2.25;;;25.40;45.80;;;;;;5093781;28;20142;-47
2021/01/09 00:59:12;;;;;;;5.63;2.08;;;25.40;45.70;;;;;;5093957;28;20020;-48
2021/01/09 01:01:38;;;;;;;9.15;2.38;;;25.50;45.70;;;;;;5094485;28;20494;-48
2021/01/09 01:04:05;;;;;;;7.55;2.45;;;25.50;45.70;;;;;;5094164;28;20024;-48
2021/01/09 01:06:31;;;;;;;6.35;2.28;;;25.50;45.60;;;;;;5094120;28;20024;-47
2021/01/09 01:08:58;;;;;;;4.95;2.13;;;25.50;45.60;;;;;;5093904;28;20024;-48
2021/01/09 01:11:29;;;;;;;5.80;2.30;;;25.50;45.60;;;;;;5094193;28;20027;-48
2021/01/09 01:13:57;;;;;;;6.53;2.23;;;25.60;45.60;;;;;;5093813;28;20036;-47
2021/01/09 01:16:24;;;;;;;4.38;1.80;;;25.50;45.50;;;;;;5093925;28;20120;-47
2021/01/09 01:18:51;;;;;;;9.32;2.00;;;25.60;45.50;;;;;;5093549;28;20035;-48
2021/01/09 01:21:18;;;;;;;4.93;1.80;;;25.50;45.40;;;;;;5094027;28;20460;-48
2021/01/09 01:23:45;;;;;;;15.23;4.72;;;25.50;45.40;;;;;;5092030;28;20051;-48
2021/01/09 01:26:12;;;;;;;14.85;7.00;;;25.50;45.40;;;;;;5092219;28;20039;-47
2021/01/09 01:28:42;;;;;;;27.80;12.02;;;25.50;45.40;;;;;;5093652;28;20483;-48
2021/01/09 01:31:09;;;;;;;23.30;11.40;;;25.50;45.40;;;;;;5092532;28;20028;-47
2021/01/09 01:33:40;;;;;;;26.10;12.73;;;25.50;45.50;;;;;;5093763;28;20024;-48
2021/01/09 01:36:09;;;;;;;22.38;10.73;;;25.40;45.50;;;;;;5093684;28;20464;-47
2021/01/09 01:38:36;;;;;;;29.23;11.30;;;25.40;45.50;;;;;;5093809;28;20021;-47
2021/01/09 01:41:07;;;;;;;22.48;10.82;;;25.40;45.60;;;;;;5093031;28;20020;-47
2021/01/09 01:43:34;;;;;;;23.63;11.20;;;25.40;45.70;;;;;;5093081;28;20429;-47
2021/01/09 01:46:02;;;;;;;20.80;9.70;;;25.40;45.70;;;;;;5096768;28;20486;-47
2021/01/09 01:48:29;;;;;;;22.45;10.48;;;25.40;45.80;;;;;;5098455;28;20030;-47
2021/01/09 01:50:57;;;;;;;18.83;8.27;;;25.40;45.70;;;;;;5097585;28;20103;-48
2021/01/09 01:53:26;;;;;;;17.95;9.10;;;25.40;45.70;;;;;;5097027;28;20748;-48
2021/01/09 01:55:52;;;;;;;19.90;8.40;;;25.50;45.70;;;;;;5096530;28;20107;-47
2021/01/09 01:58:19;;;;;;;20.35;8.60;;;25.50;45.70;;;;;;5097223;28;20028;-48
2021/01/09 02:00:47;;;;;;;20.02;8.10;;;25.50;45.60;;;;;;5097652;28;20031;-48
2021/01/09 02:03:20;;;;;;;16.58;7.68;;;25.60;45.50;;;;;;5097614;28;20035;-48
2021/01/09 02:06:01;;;;;;;13.38;6.93;;;25.70;45.40;;;;;;5097061;28;20020;-48
2021/01/09 02:09:08;;;;;;;12.30;6.97;;;25.70;45.50;;;;;;5096235;28;20035;-48
2021/01/09 02:11:59;;;;;;;14.57;7.15;;;25.70;45.40;;;;;;5097290;28;20060;-47
2021/01/09 02:14:38;;;;;;;14.63;6.77;;;25.70;45.30;;;;;;5096359;28;20125;-47
2021/01/09 02:17:07;;;;;;;12.35;6.05;;;25.70;45.20;;;;;;5097100;28;20020;-48
2021/01/09 02:19:43;;;;;;;15.75;6.55;;;25.80;45.30;;;;;;5096752;28;20055;-48
2021/01/09 02:22:16;;;;;;;11.95;6.15;;;25.80;45.20;;;;;;5096729;28;20460;-49
2021/01/09 02:24:45;;;;;;;14.50;5.30;;;25.80;45.10;;;;;;5096492;28;20024;-47
2021/01/09 02:27:11;;;;;;;10.05;5.68;;;25.80;45.10;;;;;;5096958;28;20110;-48
2021/01/09 02:29:52;;;;;;;14.20;5.65;;;25.80;45.10;;;;;;5097079;28;20016;-48
2021/01/09 02:32:24;;;;;;;12.00;5.63;;;25.80;45.10;;;;;;5096740;28;20028;-47
2021/01/09 02:34:58;;;;;;;12.38;5.45;;;25.80;45.10;;;;;;5096509;28;20044;-47
2021/01/09 02:37:26;;;;;;;10.65;5.20;;;25.80;45.10;;;;;;5097167;28;20032;-47
2021/01/09 02:39:56;;;;;;;11.05;5.18;;;25.80;45.10;;;;;;5096505;28;20024;-48
2021/01/09 02:42:22;;;;;;;12.02;4.80;;;25.70;45.00;;;;;;5096567;28;20020;-47
2021/01/09 02:44:51;;;;;;;12.15;5.15;;;25.80;45.10;;;;;;5096536;28;20077;-48
2021/01/09 02:47:18;;;;;;;12.40;4.93;;;25.70;44.90;;;;;;5096628;28;20024;-48
2021/01/09 02:49:45;;;;;;;10.32;4.90;;;25.70;44.90;;;;;;5096461;28;20039;-48
2021/01/09 02:52:12;;;;;;;10.55;4.57;;;25.70;44.90;;;;;;5096920;28;20066;-48
2021/01/09 02:54:38;;;;;;;7.68;4.57;;;25.60;44.90;;;;;;5096069;28;20040;-48
2021/01/09 02:57:05;;;;;;;9.38;4.18;;;25.60;45.00;;;;;;5095693;28;20475;-47
2021/01/09 02:59:31;;;;;;;14.05;5.07;;;25.50;45.00;;;;;;5096201;28;20405;-47
2021/01/09 03:01:58;;;;;;;6.72;3.97;;;25.50;45.00;;;;;;5096164;28;20028;-47
2021/01/09 03:04:24;;;;;;;8.25;4.38;;;25.50;45.20;;;;;;5096340;28;20538;-47
2021/01/09 03:06:51;;;;;;;10.82;4.03;;;25.50;45.10;;;;;;5096092;28;20028;-48
2021/01/09 03:09:17;;;;;;;7.75;3.97;;;25.40;45.10;;;;;;5096450;28;20107;-48
2021/01/09 03:11:44;;;;;;;7.57;3.65;;;25.40;45.20;;;;;;5095942;28;20345;-47
2021/01/09 03:14:10;;;;;;;6.95;3.30;;;25.40;45.20;;;;;;5095836;28;20020;-47
2021/01/09 03:16:37;;;;;;;9.35;3.58;;;25.40;45.20;;;;;;5095906;28;20460;-48
2021/01/09 03:19:03;;;;;;;7.72;3.60;;;25.40;45.20;;;;;;5096048;28;20020;-48
2021/01/09 03:21:30;;;;;;;5.80;3.10;;;25.40;45.30;;;;;;5095940;28;20031;-48
2021/01/09 03:23:56;;;;;;;4.40;2.90;;;25.40;45.30;;;;;;5095144;28;20508;-47
2021/01/09 03:26:23;;;;;;;6.85;3.55;;;25.40;45.30;;;;;;5095385;28;20024;-46
2021/01/09 03:28:49;;;;;;;5.55;3.13;;;25.40;45.30;;;;;;5095486;28;20357;-48
2021/01/09 03:31:16;;;;;;;10.48;3.40;;;25.30;45.20;;;;;;5095840;28;20479;-48
2021/01/09 03:33:42;;;;;;;4.00;2.63;;;25.30;45.20;;;;;;5095275;28;20044;-48
2021/01/09 03:36:09;;;;;;;8.38;3.15;;;25.30;45.20;;;;;;5095504;28;20372;-48
2021/01/09 03:38:35;;;;;;;4.78;2.53;;;25.30;45.10;;;;;;5095340;28;20028;-48
2021/01/09 03:41:02;;;;;;;10.98;2.92;;;25.30;45.20;;;;;;5095351;28;20389;-48
2021/01/09 03:43:29;;;;;;;5.75;2.85;;;25.30;45.20;;;;;;5095342;28;20486;-48
2021/01/09 03:45:55;;;;;;;4.68;2.55;;;25.20;45.80;;;;;;5075363;28;20028;-48
2021/01/09 03:48:21;;;;;;;5.50;2.80;;;25.30;45.20;;;;;;5093014;28;20384;-47
2021/01/09 03:50:48;;;;;;;9.35;2.90;;;25.30;45.20;;;;;;5094352;28;20035;-48
2021/01/09 03:53:16;;;;;;;5.97;2.60;;;25.20;45.10;;;;;;5094785;28;20043;-47
2021/01/09 03:55:42;;;;;;;5.55;2.25;;;25.20;45.20;;;;;;5095087;28;20128;-48
2021/01/09 03:58:09;;;;;;;7.28;2.75;;;25.20;45.20;;;;;;5095407;28;20055;-48
2021/01/09 04:00:35;;;;;;;7.68;2.50;;;25.20;45.20;;;;;;5095342;28;20027;-47
2021/01/09 04:03:02;;;;;;;5.30;2.50;;;25.10;45.10;;;;;;5095142;28;20036;-47
2021/01/09 04:05:29;;;;;;;8.68;2.80;;;25.10;45.10;;;;;;5095538;28;20497;-48
2021/01/09 04:07:56;;;;;;;6.18;2.45;;;25.10;45.10;;;;;;5094363;28;20099;-48
2021/01/09 04:10:22;;;;;;;4.85;2.08;;;25.00;45.00;;;;;;5094821;28;20024;-48
2021/01/09 04:12:49;;;;;;;8.63;2.60;;;25.00;45.00;;;;;;5095068;28;20027;-48
2021/01/09 04:15:15;;;;;;;4.68;2.22;;;24.90;45.10;;;;;;5095095;28;20395;-47
2021/01/09 04:17:42;;;;;;;6.00;2.47;;;24.90;45.20;;;;;;5094642;28;20467;-47
2021/01/09 04:20:09;;;;;;;6.45;2.40;;;24.80;45.20;;;;;;5095138;28;20471;-48
2021/01/09 04:22:36;;;;;;;6.20;2.40;;;24.80;45.20;;;;;;5094803;28;20468;-48
2021/01/09 04:25:04;;;;;;;6.57;2.50;;;24.70;45.30;;;;;;5093442;28;20029;-47
2021/01/09 04:27:30;;;;;;;5.22;2.13;;;24.70;45.30;;;;;;5094591;28;20472;-47
2021/01/09 04:29:57;;;;;;;3.25;1.98;;;24.60;45.40;;;;;;5094792;28;20031;-48
2021/01/09 04:32:23;;;;;;;3.58;2.00;;;24.70;45.50;;;;;;5094673;28;20387;-48
2021/01/09 04:34:50;;;;;;;9.15;2.00;;;24.60;45.50;;;;;;5094640;28;20122;-48
2021/01/09 04:37:17;;;;;;;7.88;2.00;;;24.60;45.60;;;;;;5094874;28;20024;-47
2021/01/09 04:39:43;;;;;;;7.10;2.40;;;24.60;45.60;;;;;;5094325;28;20489;-48
2021/01/09 04:42:10;;;;;;;7.43;2.22;;;24.60;45.70;;;;;;5094590;28;20095;-48
2021/01/09 04:44:37;;;;;;;7.07;2.10;;;24.50;45.60;;;;;;5094523;28;20028;-47
2021/01/09 04:47:04;;;;;;;6.07;2.17;;;24.60;45.70;;;;;;5094503;28;20024;-48
2021/01/09 04:49:30;;;;;;;8.90;2.20;;;24.60;45.70;;;;;;5094302;28;20039;-48
2021/01/09 04:51:57;;;;;;;7.25;1.92;;;24.60;45.70;;;;;;5094327;28;20082;-47
2021/01/09 04:54:26;;;;;;;6.65;1.85;;;24.60;45.70;;;;;;5094509;28;20028;-48
2021/01/09 04:56:54;;;;;;;13.45;1.90;;;24.60;45.70;;;;;;5094323;28;20029;-48
2021/01/09 04:59:23;;;;;;;4.03;1.65;;;24.70;46.30;;;;;;5094312;28;20028;-48
2021/01/09 05:01:51;;;;;;;8.88;2.00;;;24.70;45.60;;;;;;5094189;28;20471;-48
2021/01/09 05:04:19;;;;;;;4.57;1.70;;;24.80;45.50;;;;;;5094116;28;20387;-48
2021/01/09 05:06:47;;;;;;;4.57;1.83;;;24.80;45.50;;;;;;5094191;28;20020;-48
2021/01/09 05:09:15;;;;;;;4.35;1.60;;;24.80;45.40;;;;;;5094032;28;20051;-48
2021/01/09 05:11:43;;;;;;;6.25;1.80;;;24.80;45.30;;;;;;5094113;28;20439;-47
2021/01/09 05:14:10;;;;;;;5.00;1.77;;;24.90;45.30;;;;;;5093592;28;20028;-48
2021/01/09 05:16:39;;;;;;;3.97;1.67;;;24.90;45.20;;;;;;5093225;28;20024;-47
2021/01/09 05:19:07;;;;;;;3.63;1.60;;;25.00;45.20;;;;;;5092826;28;20038;-47
2021/01/09 05:21:36;;;;;;;4.53;1.70;;;25.00;45.20;;;;;;5093882;28;20016;-47
2021/01/09 05:24:05;;;;;;;4.40;1.42;;;25.00;45.10;;;;;;5091288;28;20044;-48
2021/01/09 05:26:32;;;;;;;2.90;1.58;;;25.10;45.10;;;;;;5093926;28;20032;-48
2021/01/09 05:29:01;;;;;;;2.72;1.52;;;25.10;45.10;;;;;;5093699;28;20079;-47
2021/01/09 05:31:35;;;;;;;4.60;1.58;;;25.10;45.00;;;;;;5094158;28;20032;-48
2021/01/09 05:34:05;;;;;;;4.13;1.60;;;25.10;44.90;;;;;;5093564;28;20178;-48
2021/01/09 05:36:32;;;;;;;4.85;1.30;;;25.10;44.80;;;;;;5093852;28;20085;-47
2021/01/09 05:38:59;;;;;;;4.95;1.20;;;25.10;44.80;;;;;;5093878;28;20048;-47
2021/01/09 05:41:26;;;;;;;4.28;1.17;;;25.20;44.90;;;;;;5094093;28;20030;-47
2021/01/09 05:44:06;;;;;;;4.57;1.30;;;25.20;44.90;;;;;;5092990;28;20060;-48
2021/01/09 05:46:38;;;;;;;2.97;1.20;;;25.10;44.70;;;;;;5092161;28;20069;-48
2021/01/09 05:49:06;;;;;;;4.13;1.30;;;25.20;44.70;;;;;;5093359;28;20455;-48
2021/01/09 05:51:34;;;;;;;3.70;1.10;;;25.20;44.60;;;;;;5093519;28;20047;-48
2021/01/09 05:54:01;;;;;;;3.58;1.10;;;25.20;44.60;;;;;;5093713;28;20032;-48
2021/01/09 05:56:27;;;;;;;3.13;1.02;;;25.20;44.60;;;;;;5091983;28;20064;-47
2021/01/09 05:58:56;;;;;;;2.90;1.10;;;25.20;44.50;;;;;;5092287;28;20024;-47
2021/01/09 06:01:29;;;;;;;5.32;0.90;;;25.20;44.50;;;;;;5093019;28;20084;-48
2021/01/09 06:04:16;;;;;;;3.30;1.25;;;25.20;44.50;;;;;;5093072;28;20051;-48
2021/01/09 06:06:53;;;;;;;2.03;0.85;;;25.20;44.50;;;;;;5093785;28;20444;-48
2021/01/09 06:09:24;;;;;;;4.85;1.23;;;25.20;44.50;;;;;;5092912;28;20038;-48
2021/01/09 06:11:54;;;;;;;2.38;1.02;;;25.10;44.40;;;;;;5080319;28;20036;-48
2021/01/09 06:14:26;;;;;;;1.55;0.95;;;25.10;44.40;;;;;;5093468;28;20376;-48
2021/01/09 06:16:54;;;;;;;4.93;1.00;;;25.10;44.40;;;;;;5092923;28;20438;-48
2021/01/09 06:19:21;;;;;;;2.83;1.10;;;25.10;44.50;;;;;;5092841;28;20142;-48
2021/01/09 06:21:48;;;;;;;1.77;0.90;;;25.00;44.40;;;;;;5093277;28;20503;-48
2021/01/09 06:24:17;;;;;;;1.67;0.80;;;25.00;44.50;;;;;;5093939;28;20052;-47
2021/01/09 06:26:45;;;;;;;3.60;0.85;;;24.90;44.30;;;;;;5093077;28;20029;-47
2021/01/09 06:29:25;;;;;;;2.22;1.10;;;24.90;44.40;;;;;;5091274;28;20036;-47
2021/01/09 06:31:53;;;;;;;2.72;1.00;;;24.90;44.40;;;;;;5094541;28;20032;-48
2021/01/09 06:34:24;;;;;;;2.17;0.90;;;24.90;44.50;;;;;;5095988;28;20364;-47
2021/01/09 06:37:01;;;;;;;2.53;0.70;;;24.80;44.50;;;;;;5095448;28;20024;-48
2021/01/09 06:39:37;;;;;;;3.75;1.05;;;24.80;44.50;;;;;;5096347;28;20406;-48
2021/01/09 06:42:08;;;;;;;3.08;0.93;;;24.70;44.50;;;;;;5095297;28;20020;-47
2021/01/09 06:44:36;;;;;;;2.53;0.90;;;24.70;44.50;;;;;;5096625;28;20107;-47
2021/01/09 06:47:02;;;;;;;2.28;1.00;;;24.60;44.50;;;;;;5094534;28;20495;-48
2021/01/09 06:49:29;;;;;;;3.28;1.00;;;24.60;44.50;;;;;;5090499;28;20085;-48
2021/01/09 06:52:03;;;;;;;4.00;1.08;;;24.50;44.40;;;;;;5091137;28;20085;-47
2021/01/09 06:54:46;;;;;;;7.72;1.20;;;24.50;44.40;;;;;;5096216;28;20082;-48
2021/01/09 06:57:21;;;;;;;2.25;0.75;;;24.40;44.40;;;;;;5096278;28;20391;-48
2021/01/09 06:59:50;;;;;;;3.35;0.88;;;24.30;44.40;;;;;;5096261;28;20028;-48
2021/01/09 07:02:28;;;;;;;1.85;1.02;;;24.20;44.50;;;;;;5096135;28;20111;-47
2021/01/09 07:05:06;;;;;;;5.68;0.88;;;24.20;44.60;;;;;;5096489;28;20034;-48
2021/01/09 07:07:59;;;;;;;4.15;1.05;;;24.10;44.60;;;;;;5095177;28;20482;-47
2021/01/09 20:50:33;;;;;;;28.80;14.93;;;18.00;55.90;;;;;;5110691;27;20428;-53
2021/01/09 20:53:00;;;;;;;28.63;14.82;;;17.80;56.80;;;;;;5111620;28;20092;-54
2021/01/09 20:55:27;;;;;;;38.50;16.98;;;17.90;56.80;;;;;;5112125;28;20439;-53
2021/01/09 20:57:56;;;;;;;34.10;14.77;;;18.00;56.90;;;;;;5111865;28;20467;-54
2021/01/09 21:00:23;;;;;;;27.52;13.95;;;18.00;56.50;;;;;;5111834;28;20102;-54
2021/01/09 21:02:50;;;;;;;30.45;14.82;;;18.20;56.70;;;;;;5111553;28;20024;-53
2021/01/09 21:05:17;;;;;;;34.80;14.65;;;18.30;56.10;;;;;;5111215;28;20363;-52
2021/01/09 21:07:43;;;;;;;29.50;14.35;;;18.40;55.90;;;;;;5110399;28;20049;-53
2021/01/09 21:10:11;;;;;;;24.70;13.70;;;18.50;55.50;;;;;;5111532;28;20032;-53
2021/01/09 21:12:39;;;;;;;23.30;12.73;;;18.60;55.20;;;;;;5109792;28;20055;-53
2021/01/09 21:15:08;;;;;;;24.58;13.35;;;18.80;55.00;;;;;;5111274;28;20051;-53
2021/01/09 21:17:36;;;;;;;33.97;12.30;;;18.90;54.70;;;;;;5111165;28;20132;-53
2021/01/09 21:20:03;;;;;;;27.15;13.20;;;19.00;54.50;;;;;;5111226;28;20363;-53
2021/01/09 21:22:30;;;;;;;25.15;12.85;;;19.20;54.30;;;;;;5111226;28;20020;-53
2021/01/09 21:24:56;;;;;;;23.65;11.90;;;19.30;54.00;;;;;;5110876;28;20023;-53
2021/01/09 21:27:23;;;;;;;23.42;11.27;;;19.40;53.80;;;;;;5111044;28;20035;-53
2021/01/09 21:29:49;;;;;;;22.08;11.70;;;19.60;53.50;;;;;;5111136;28;20032;-53
2021/01/09 21:32:16;;;;;;;20.10;10.77;;;19.80;53.20;;;;;;5110919;28;20067;-53
2021/01/09 21:34:42;;;;;;;17.10;9.45;;;19.90;52.90;;;;;;5110945;28;20024;-53
2021/01/09 21:37:09;;;;;;;25.08;10.73;;;20.10;52.70;;;;;;5090958;28;20479;-54
2021/01/09 21:39:35;;;;;;;24.17;10.80;;;20.30;52.40;;;;;;5090739;28;20032;-54
2021/01/09 21:42:04;;;;;;;21.35;10.35;;;20.40;52.10;;;;;;5090406;28;20031;-53
2021/01/09 21:44:31;;;;;;;19.58;10.15;;;20.60;51.80;;;;;;5090123;28;20447;-53
2021/01/09 21:46:58;;;;;;;19.70;9.13;;;20.70;51.40;;;;;;5090272;28;20112;-53
2021/01/09 21:49:25;;;;;;;19.50;9.95;;;20.90;51.20;;;;;;5090329;28;20078;-54
2021/01/09 21:51:56;;;;;;;23.10;9.95;;;21.00;50.80;;;;;;5090000;28;20020;-54
2021/01/09 21:54:24;;;;;;;21.40;9.33;;;21.20;50.40;;;;;;5090302;28;20028;-54
2021/01/09 21:56:50;;;;;;;20.27;9.55;;;21.30;50.20;;;;;;5090209;28;20635;-54
2021/01/09 21:59:18;;;;;;;20.10;8.77;;;21.50;49.90;;;;;;5090143;28;20396;-54
2021/01/09 22:01:50;;;;;;;20.42;9.07;;;21.60;49.60;;;;;;5077905;28;20143;-54
2021/01/09 22:04:16;;;;;;;19.67;8.65;;;21.70;49.20;;;;;;5076682;28;20017;-54
2021/01/09 22:06:43;;;;;;;17.75;8.63;;;21.90;49.00;;;;;;5075760;28;20033;-54
2021/01/09 22:09:10;;;;;;;21.13;8.55;;;21.90;48.60;;;;;;5076191;28;20024;-54
2021/01/09 22:11:40;;;;;;;15.65;7.97;;;22.10;48.50;;;;;;5076753;28;20455;-53
2021/01/09 22:14:08;;;;;;;16.85;7.30;;;22.20;48.20;;;;;;5076460;28;20025;-54
2021/01/09 22:16:36;;;;;;;19.08;8.32;;;22.30;47.90;;;;;;5076518;28;20029;-54
2021/01/09 22:19:06;;;;;;;17.17;7.75;;;22.40;47.70;;;;;;5076509;28;20032;-55
2021/01/09 22:21:41;;;;;;;14.68;7.80;;;22.60;47.70;;;;;;5076286;28;20056;-55
2021/01/09 22:24:08;;;;;;;11.65;6.90;;;22.60;47.40;;;;;;5076211;28;20027;-55
2021/01/09 22:26:36;;;;;;;12.70;7.00;;;22.70;47.40;;;;;;5076468;28;20107;-54
2021/01/09 22:29:04;;;;;;;17.10;7.53;;;22.90;47.20;;;;;;5076040;28;20075;-56
2021/01/09 22:31:42;;;;;;;15.80;7.47;;;22.90;46.80;;;;;;5074942;28;20058;-57
2021/01/09 22:34:14;;;;;;;15.73;7.43;;;23.10;46.70;;;;;;5076095;28;20054;-56
2021/01/09 22:36:44;;;;;;;;;;;23.10;46.40;;;;;;5060887;28;20049;-59
2021/01/09 22:39:11;;;;;;;17.23;6.78;;;23.20;46.90;;;;;;5056496;28;19955;-59
2021/01/09 22:41:38;;;;;;;13.23;6.35;;;23.30;46.10;;;;;;5055825;28;20025;-59
2021/01/09 22:44:06;;;;;;;13.38;6.45;;;23.40;46.10;;;;;;5056664;28;20091;-59
2021/01/09 22:46:36;;;;;;;10.93;6.15;;;23.50;45.80;;;;;;5055716;28;20111;-60
2021/01/09 22:49:03;;;;;;;20.17;8.15;;;23.60;45.70;;;;;;5055535;28;20480;-60
2021/01/09 22:51:29;;;;;;;15.43;6.85;;;23.70;45.50;;;;;;5055351;28;20025;-59
2021/01/09 22:53:56;;;;;;;14.73;6.60;;;23.80;45.20;;;;;;5055608;28;20025;-59
2021/01/09 22:56:22;;;;;;;17.48;6.97;;;23.90;45.10;;;;;;5070619;28;20123;-60
2021/01/09 22:58:49;;;;;;;13.35;6.05;;;24.00;45.00;;;;;;5055481;28;20029;-59
2021/01/09 23:01:16;;;;;;;18.25;6.25;;;24.10;44.90;;;;;;5070901;28;20024;-59
2021/01/09 23:03:43;;;;;;;13.02;6.32;;;24.20;44.70;;;;;;5055466;28;20037;-59
2021/01/09 23:06:10;;;;;;;13.00;6.15;;;24.30;44.70;;;;;;5055456;28;20025;-59
2021/01/09 23:08:36;;;;;;;9.70;5.05;;;24.40;44.60;;;;;;5055294;28;20025;-59
2021/01/09 23:11:04;;;;;;;16.60;6.05;;;24.50;44.50;;;;;;5055357;28;20476;-59
2021/01/09 23:13:30;;;;;;;11.10;5.32;;;24.60;44.30;;;;;;5053897;28;20025;-59
2021/01/09 23:15:57;;;;;;;10.43;4.90;;;24.80;44.20;;;;;;5055201;28;20023;-59
2021/01/09 23:18:24;;;;;;;12.85;5.70;;;24.90;44.10;;;;;;5055219;28;20457;-59
2021/01/09 23:20:50;;;;;;;11.65;5.30;;;25.10;44.50;;;;;;5055043;28;20033;-59
2021/01/09 23:23:17;;;;;;;11.63;5.13;;;25.20;43.70;;;;;;5055079;28;20029;-59
2021/01/09 23:25:47;;;;;;;9.77;5.07;;;25.40;43.50;;;;;;5055114;28;20025;-59
2021/01/09 23:28:14;;;;;;;8.90;4.75;;;25.50;43.30;;;;;;5055032;28;20131;-59
2021/01/09 23:30:41;;;;;;;8.93;4.68;;;25.60;43.20;;;;;;5054917;28;20036;-59
2021/01/09 23:33:08;;;;;;;9.20;5.10;;;25.70;43.00;;;;;;5054837;28;20117;-59
2021/01/09 23:35:44;;;;;;;8.75;4.70;;;25.80;42.80;;;;;;5060812;28;20029;-59
2021/01/09 23:38:12;;;;;;;12.03;4.57;;;25.90;42.60;;;;;;5074988;28;20031;-59
2021/01/09 23:40:40;;;;;;;8.70;4.40;;;26.00;42.30;;;;;;5074776;28;20476;-59
2021/01/09 23:43:08;;;;;;;9.15;4.15;;;26.10;42.20;;;;;;5074369;28;20021;-59
2021/01/09 23:45:34;;;;;;;9.18;4.70;;;26.10;42.00;;;;;;5073947;28;20039;-58
2021/01/09 23:48:04;;;;;;;7.63;3.83;;;26.20;42.00;;;;;;5073416;28;20059;-59
2021/01/09 23:50:31;;;;;;;7.95;4.40;;;26.20;41.80;;;;;;5074455;28;20048;-58
2021/01/09 23:52:58;;;;;;;9.68;4.53;;;26.30;41.80;;;;;;5074375;28;20525;-59
2021/01/09 23:55:25;;;;;;;10.70;4.13;;;26.30;41.70;;;;;;5074380;28;20024;-59
2021/01/09 23:57:51;;;;;;;6.20;3.45;;;26.30;41.60;;;;;;5074432;28;20027;-59
